createdAt,value
2019-06-20T00:01:17.495Z,21.60
2019-06-20T00:03:49.695Z,21.50
2019-06-20T00:06:22.076Z,21.40
2019-06-20T00:08:54.603Z,21.30
2019-06-20T00:11:26.881Z,21.30
2019-06-20T00:13:59.084Z,21.00
2019-06-20T00:16:31.306Z,20.80
2019-06-20T00:19:03.971Z,20.70
2019-06-20T00:21:37.322Z,20.80
2019-06-20T00:24:11.281Z,20.70
2019-06-20T00:26:43.512Z,20.50
2019-06-20T00:29:15.808Z,20.40
2019-06-20T00:31:49.206Z,20.40
2019-06-20T00:34:21.558Z,20.40
2019-06-20T00:36:53.971Z,20.60
2019-06-20T00:39:26.708Z,20.60
2019-06-20T00:41:58.929Z,20.60
2019-06-20T00:44:31.875Z,20.60
2019-06-20T00:47:04.318Z,20.60
2019-06-20T00:49:36.505Z,20.80
2019-06-20T00:52:08.724Z,20.80
2019-06-20T00:54:40.973Z,20.50
2019-06-20T00:57:13.192Z,20.40
2019-06-20T00:59:45.845Z,20.40
2019-06-20T01:02:18.050Z,20.40
2019-06-20T01:04:50.275Z,20.60
2019-06-20T01:07:23.195Z,20.80
2019-06-20T01:09:55.592Z,20.80
2019-06-20T01:12:28.164Z,20.80
2019-06-20T01:15:00.429Z,20.60
2019-06-20T01:17:33.223Z,20.70
2019-06-20T01:20:07.060Z,20.80
2019-06-20T01:22:39.652Z,20.80
2019-06-20T01:25:12.282Z,20.80
2019-06-20T01:27:45.543Z,21.00
2019-06-20T01:30:18.152Z,21.10
2019-06-20T01:32:50.314Z,21.30
2019-06-20T01:35:22.655Z,21.30
2019-06-20T01:37:55.243Z,21.20
2019-06-20T01:40:27.768Z,21.10
2019-06-20T01:42:59.999Z,21.00
2019-06-20T01:45:32.235Z,20.80
2019-06-20T01:48:04.480Z,20.70
2019-06-20T01:50:37.899Z,20.60
2019-06-20T01:53:10.055Z,20.50
2019-06-20T01:55:42.971Z,20.40
2019-06-20T01:58:15.190Z,20.30
2019-06-20T02:00:51.321Z,20.30
2019-06-20T02:03:23.707Z,20.20
2019-06-20T02:05:55.936Z,20.10
2019-06-20T02:08:28.210Z,19.90
2019-06-20T02:11:00.697Z,19.80
2019-06-20T02:13:32.912Z,19.90
2019-06-20T02:16:05.531Z,19.90
2019-06-20T02:18:37.780Z,20.00
2019-06-20T02:21:10.757Z,19.70
2019-06-20T02:23:43.316Z,19.60
2019-06-20T02:26:15.686Z,19.60
2019-06-20T02:28:47.812Z,19.70
2019-06-20T02:31:20.194Z,19.40
2019-06-20T02:33:52.372Z,19.20
2019-06-20T02:36:24.603Z,19.30
2019-06-20T02:38:56.832Z,19.40
2019-06-20T02:41:29.490Z,19.50
2019-06-20T02:44:01.985Z,19.50
2019-06-20T02:46:34.512Z,19.60
2019-06-20T02:49:06.919Z,19.50
2019-06-20T02:51:39.430Z,19.40
2019-06-20T02:54:11.684Z,19.40
2019-06-20T02:56:43.886Z,19.30
2019-06-20T02:59:16.162Z,19.20
2019-06-20T03:01:49.043Z,19.30
2019-06-20T03:04:21.193Z,19.30
2019-06-20T03:06:53.538Z,19.30
2019-06-20T03:09:26.487Z,19.20
2019-06-20T03:11:58.676Z,19.20
2019-06-20T03:14:44.556Z,19.10
2019-06-20T03:17:05.038Z,19.10
2019-06-20T03:19:37.308Z,19.10
2019-06-20T03:22:09.653Z,19.20
2019-06-20T03:24:42.142Z,19.20
2019-06-20T03:27:14.363Z,19.20
2019-06-20T03:29:47.009Z,19.30
2019-06-20T03:32:19.231Z,19.30
2019-06-20T03:34:51.629Z,19.40
2019-06-20T03:37:23.904Z,19.40
2019-06-20T03:39:56.169Z,19.20
2019-06-20T03:42:28.363Z,19.00
2019-06-20T03:45:02.540Z,18.90
2019-06-20T03:47:34.578Z,18.90
2019-06-20T03:50:06.963Z,19.00
2019-06-20T03:52:39.159Z,19.10
2019-06-20T03:55:12.084Z,19.00
2019-06-20T03:57:46.364Z,18.70
2019-06-20T04:00:24.134Z,18.60
2019-06-20T04:02:56.387Z,18.80
2019-06-20T04:05:29.249Z,18.90
2019-06-20T04:08:01.782Z,19.10
2019-06-20T04:10:34.676Z,19.10
2019-06-20T04:13:06.905Z,19.10
2019-06-20T04:15:39.745Z,19.20
2019-06-20T04:18:11.911Z,19.10
2019-06-20T04:20:44.207Z,19.00
2019-06-20T04:23:16.818Z,18.90
2019-06-20T04:28:33.080Z,19.00
2019-06-20T04:31:05.502Z,19.00
2019-06-20T04:33:37.706Z,19.10
2019-06-20T04:36:10.487Z,19.10
2019-06-20T04:38:42.963Z,19.30
2019-06-20T04:41:15.555Z,19.30
2019-06-20T04:43:48.637Z,19.20
2019-06-20T04:46:30.028Z,19.20
2019-06-20T04:49:02.681Z,19.30
2019-06-20T04:51:35.042Z,19.40
2019-06-20T04:54:07.744Z,19.50
2019-06-20T04:56:40.379Z,19.60
2019-06-20T04:59:12.664Z,19.70
2019-06-20T05:01:45.564Z,19.80
2019-06-20T05:04:17.929Z,19.90
2019-06-20T05:06:57.740Z,20.00
2019-06-20T05:09:29.891Z,20.10
2019-06-20T05:12:02.162Z,20.20
2019-06-20T05:14:34.368Z,20.40
2019-06-20T05:17:07.427Z,20.40
2019-06-20T05:19:41.740Z,20.50
2019-06-20T05:22:14.045Z,20.70
2019-06-20T05:24:46.351Z,20.80
2019-06-20T05:27:18.846Z,21.10
2019-06-20T05:29:51.126Z,21.40
2019-06-20T05:32:23.421Z,21.70
2019-06-20T05:34:56.804Z,21.40
2019-06-20T05:37:29.182Z,21.60
2019-06-20T05:40:01.420Z,21.60
2019-06-20T05:42:33.856Z,21.80
2019-06-20T05:45:07.371Z,21.70
2019-06-20T05:47:39.585Z,21.60
2019-06-20T05:50:13.335Z,21.60
2019-06-20T05:52:45.670Z,21.50
2019-06-20T05:55:18.464Z,21.50
2019-06-20T05:57:50.653Z,21.70
2019-06-20T06:00:26.031Z,21.80
2019-06-20T06:02:58.352Z,22.00
2019-06-20T06:05:30.831Z,22.40
2019-06-20T06:08:03.962Z,22.60
2019-06-20T06:10:36.267Z,22.70
2019-06-20T06:13:08.502Z,22.90
2019-06-20T06:15:41.126Z,22.80
2019-06-20T06:18:14.210Z,22.60
2019-06-20T06:20:46.574Z,22.50
2019-06-20T06:23:18.921Z,22.50
2019-06-20T06:25:52.155Z,22.50
2019-06-20T06:28:24.578Z,22.50
2019-06-20T06:30:56.964Z,22.60
2019-06-20T06:33:29.183Z,22.70
2019-06-20T06:36:01.586Z,22.60
2019-06-20T06:38:33.993Z,22.60
2019-06-20T06:41:06.410Z,22.60
2019-06-20T06:43:42.012Z,22.60
2019-06-20T06:46:13.739Z,22.60
2019-06-20T06:48:46.816Z,22.70
2019-06-20T06:51:19.465Z,22.50
2019-06-20T06:53:52.388Z,22.00
2019-06-20T06:56:25.956Z,21.90
2019-06-20T06:58:58.955Z,21.60
2019-06-20T07:01:31.999Z,21.50
2019-06-20T07:04:04.425Z,21.20
2019-06-20T07:06:36.805Z,21.20
2019-06-20T07:09:10.008Z,21.00
2019-06-20T07:11:42.387Z,21.00
2019-06-20T07:14:14.915Z,20.90
2019-06-20T07:16:59.797Z,20.90
2019-06-20T07:19:21.899Z,20.70
2019-06-20T07:21:54.263Z,20.60
2019-06-20T07:24:27.550Z,20.70
2019-06-20T07:27:04.807Z,20.90
2019-06-20T07:29:38.987Z,21.00
2019-06-20T07:32:13.122Z,21.10
2019-06-20T07:34:45.353Z,20.90
2019-06-20T07:37:18.386Z,20.90
2019-06-20T07:39:50.629Z,21.10
2019-06-20T07:42:23.038Z,21.40
2019-06-20T07:44:55.198Z,21.30
2019-06-20T07:47:27.868Z,21.40
2019-06-20T07:50:00.267Z,21.60
2019-06-20T07:52:32.521Z,21.70
2019-06-20T07:55:05.529Z,21.70
2019-06-20T07:57:37.940Z,21.80
2019-06-20T08:00:12.040Z,21.60
2019-06-20T08:02:44.366Z,21.50
2019-06-20T08:05:16.985Z,21.50
2019-06-20T08:07:49.252Z,21.40
2019-06-20T08:10:22.253Z,21.40
2019-06-20T08:12:54.801Z,21.40
2019-06-20T08:15:27.226Z,21.40
2019-06-20T08:17:59.721Z,21.20
2019-06-20T08:20:32.153Z,21.20
2019-06-20T08:23:04.556Z,21.20
2019-06-20T08:25:36.958Z,21.10
2019-06-20T08:28:09.332Z,20.80
2019-06-20T08:30:42.342Z,20.90
2019-06-20T08:33:17.903Z,21.00
2019-06-20T08:35:51.412Z,21.10
2019-06-20T08:38:23.757Z,21.20
2019-06-20T08:40:57.013Z,21.50
2019-06-20T08:43:31.110Z,21.70
2019-06-20T08:46:10.054Z,22.00
2019-06-20T08:48:39.960Z,22.50
2019-06-20T08:51:14.573Z,23.00
2019-06-20T08:53:46.394Z,23.30
2019-06-20T08:56:19.195Z,23.20
2019-06-20T08:58:51.438Z,23.40
2019-06-20T09:01:23.989Z,23.90
2019-06-20T09:03:57.022Z,24.80
2019-06-20T09:06:30.322Z,25.40
2019-06-20T09:09:02.779Z,25.10
2019-06-20T09:11:35.593Z,25.30
2019-06-20T09:14:07.905Z,25.60
2019-06-20T09:16:40.970Z,24.70
2019-06-20T09:19:14.207Z,24.60
2019-06-20T09:21:46.702Z,24.50
2019-06-20T09:24:18.904Z,25.20
2019-06-20T09:26:52.411Z,25.00
2019-06-20T09:29:25.290Z,24.50
2019-06-20T09:31:59.841Z,24.10
2019-06-20T09:34:32.427Z,23.70
2019-06-20T09:37:05.993Z,23.50
2019-06-20T09:39:38.742Z,23.20
2019-06-20T09:42:11.266Z,22.80
2019-06-20T09:44:43.783Z,22.70
2019-06-20T09:47:16.094Z,22.50
2019-06-20T09:49:50.586Z,22.50
2019-06-20T09:52:22.858Z,22.60
2019-06-20T09:54:56.136Z,22.30
2019-06-20T09:57:28.883Z,22.40
2019-06-20T10:00:09.581Z,22.70
2019-06-20T10:02:35.251Z,22.90
2019-06-20T10:05:09.082Z,23.10
2019-06-20T10:07:41.501Z,23.00
2019-06-20T10:10:15.017Z,22.60
2019-06-20T10:12:47.971Z,22.70
2019-06-20T10:15:26.448Z,23.00
2019-06-20T10:17:58.934Z,23.30
2019-06-20T10:20:31.877Z,23.20
2019-06-20T10:23:05.146Z,23.10
2019-06-20T10:25:37.952Z,23.10
2019-06-20T10:28:10.846Z,23.00
2019-06-20T10:30:44.685Z,23.30
2019-06-20T10:33:17.481Z,23.80
2019-06-20T10:35:50.382Z,25.00
2019-06-20T10:38:22.798Z,26.00
2019-06-20T10:40:59.459Z,26.40
2019-06-20T10:43:29.223Z,26.50
2019-06-20T10:46:01.689Z,26.50
2019-06-20T10:48:34.178Z,26.70
2019-06-20T10:51:24.175Z,26.20
2019-06-20T10:53:57.210Z,26.50
2019-06-20T10:56:29.547Z,26.50
2019-06-20T10:59:01.786Z,27.10
2019-06-20T11:01:34.260Z,26.80
2019-06-20T11:04:07.174Z,26.70
2019-06-20T11:06:41.339Z,27.20
2019-06-20T11:09:14.359Z,27.20
2019-06-20T11:11:47.166Z,27.00
2019-06-20T11:14:19.621Z,27.10
2019-06-20T11:16:51.885Z,26.50
2019-06-20T11:19:24.078Z,25.50
2019-06-20T11:21:56.609Z,26.10
2019-06-20T11:24:28.971Z,26.20
2019-06-20T11:27:01.237Z,27.10
2019-06-20T11:29:34.082Z,26.80
2019-06-20T11:32:06.337Z,27.30
2019-06-20T11:34:39.400Z,27.80
2019-06-20T11:37:12.044Z,28.00
2019-06-20T11:39:44.384Z,27.90
2019-06-20T11:42:16.642Z,28.00
2019-06-20T11:44:48.959Z,28.20
2019-06-20T11:47:21.534Z,28.20
2019-06-20T11:49:54.503Z,28.20
2019-06-20T11:52:26.747Z,27.50
2019-06-20T11:54:59.137Z,28.00
2019-06-20T11:57:31.901Z,28.10
2019-06-20T12:00:05.080Z,28.10
2019-06-20T12:02:37.383Z,27.70
2019-06-20T12:05:10.029Z,28.10
2019-06-20T12:07:43.847Z,28.40
2019-06-20T12:10:17.568Z,28.10
2019-06-20T12:12:49.881Z,28.00
2019-06-20T12:15:22.798Z,27.40
2019-06-20T12:17:55.119Z,27.10
2019-06-20T12:20:27.721Z,26.70
2019-06-20T12:22:59.846Z,26.90
2019-06-20T12:25:32.084Z,27.20
2019-06-20T12:28:04.406Z,27.50
2019-06-20T12:30:36.578Z,27.70
2019-06-20T12:33:08.818Z,28.00
2019-06-20T12:35:42.620Z,28.30
2019-06-20T12:38:15.345Z,28.50
2019-06-20T12:40:48.434Z,28.50
2019-06-20T12:43:20.678Z,28.50
2019-06-20T12:45:52.871Z,28.60
2019-06-20T12:48:25.489Z,29.00
2019-06-20T12:50:57.708Z,29.00
2019-06-20T12:53:30.317Z,29.00
2019-06-20T12:56:02.598Z,29.10
2019-06-20T12:58:35.467Z,28.80
2019-06-20T13:01:08.782Z,28.30
2019-06-20T13:03:41.161Z,28.30
2019-06-20T13:06:13.317Z,28.00
2019-06-20T13:08:45.582Z,28.40
2019-06-20T13:11:18.131Z,28.80
2019-06-20T13:13:51.852Z,28.70
2019-06-20T13:16:24.474Z,28.40
2019-06-20T13:18:57.053Z,28.50
2019-06-20T13:21:29.250Z,28.10
2019-06-20T13:24:01.451Z,28.30
2019-06-20T13:26:33.736Z,28.30
2019-06-20T13:29:07.112Z,28.20
2019-06-20T13:31:56.147Z,28.30
2019-06-20T13:34:13.256Z,28.30
2019-06-20T13:36:46.990Z,28.10
2019-06-20T13:39:19.708Z,27.90
2019-06-20T13:41:51.993Z,27.70
2019-06-20T13:44:24.734Z,27.50
2019-06-20T13:46:57.039Z,27.10
2019-06-20T13:49:29.365Z,27.10
2019-06-20T13:52:01.549Z,27.00
2019-06-20T13:54:33.841Z,26.90
2019-06-20T13:57:06.274Z,26.80
2019-06-20T13:59:40.260Z,26.70
2019-06-20T14:02:12.824Z,26.50
2019-06-20T14:04:46.466Z,26.50
2019-06-20T14:07:19.125Z,26.30
2019-06-20T14:09:51.467Z,26.10
2019-06-20T14:12:24.076Z,26.00
2019-06-20T14:14:56.562Z,25.80
2019-06-20T14:17:29.022Z,25.60
2019-06-20T14:20:01.522Z,25.50
2019-06-20T14:22:34.178Z,25.20
2019-06-20T14:25:08.193Z,25.10
2019-06-20T14:27:42.334Z,25.10
2019-06-20T14:30:16.344Z,25.10
2019-06-20T14:32:49.368Z,24.80
2019-06-20T14:35:22.267Z,24.70
2019-06-20T14:37:55.577Z,24.70
2019-06-20T14:40:28.077Z,24.60
2019-06-20T14:43:00.733Z,24.60
2019-06-20T14:45:33.433Z,24.60
2019-06-20T14:48:05.939Z,24.60
2019-06-20T14:50:38.150Z,24.50
2019-06-20T14:53:10.318Z,24.50
2019-06-20T14:55:44.287Z,24.50
2019-06-20T14:58:17.033Z,24.40
2019-06-20T15:00:49.897Z,24.40
2019-06-20T15:03:22.478Z,24.20
2019-06-20T15:05:56.423Z,24.10
2019-06-20T15:08:28.761Z,24.00
2019-06-20T15:11:01.455Z,24.00
2019-06-20T15:13:34.328Z,24.10
2019-06-20T15:16:08.363Z,24.10
2019-06-20T15:18:45.132Z,24.20
2019-06-20T15:21:15.694Z,24.30
2019-06-20T15:23:49.516Z,24.70
2019-06-20T15:26:22.828Z,25.00
2019-06-20T15:28:55.573Z,24.90
2019-06-20T15:31:29.145Z,25.00
2019-06-20T15:34:01.422Z,24.90
2019-06-20T15:36:34.392Z,25.00
2019-06-20T15:39:08.081Z,25.00
2019-06-20T15:41:40.570Z,25.10
2019-06-20T15:44:12.914Z,25.10
2019-06-20T15:46:45.298Z,25.20
2019-06-20T15:49:17.619Z,25.40
2019-06-20T15:51:49.919Z,25.40
2019-06-20T15:54:24.493Z,25.50
2019-06-20T15:56:56.255Z,25.40
2019-06-20T15:59:29.724Z,25.50
2019-06-20T16:02:02.266Z,25.10
2019-06-20T16:04:34.536Z,24.80
2019-06-20T16:07:06.677Z,24.80
2019-06-20T16:09:39.227Z,24.90
2019-06-20T16:12:11.448Z,24.90
2019-06-20T16:14:43.992Z,24.70
2019-06-20T16:17:19.451Z,25.00
2019-06-20T16:19:51.687Z,25.30
2019-06-20T16:22:23.943Z,25.40
2019-06-20T16:24:56.201Z,25.40
2019-06-20T16:27:28.393Z,25.20
2019-06-20T16:30:00.586Z,25.00
2019-06-20T16:32:32.765Z,24.90
2019-06-20T16:35:05.694Z,24.70
2019-06-20T16:37:38.118Z,24.50
2019-06-20T16:40:11.699Z,24.50
2019-06-20T16:42:44.063Z,24.70
2019-06-20T16:45:16.795Z,24.70
2019-06-20T16:47:49.155Z,24.90
2019-06-20T16:50:22.135Z,25.10
2019-06-20T16:52:54.675Z,25.30
2019-06-20T16:55:26.969Z,25.40
2019-06-20T16:57:59.330Z,25.50
2019-06-20T17:00:32.639Z,25.50
2019-06-20T17:03:06.109Z,25.50
2019-06-20T17:05:38.917Z,25.40
2019-06-20T17:08:11.515Z,25.30
2019-06-20T17:10:43.907Z,25.00
2019-06-20T17:13:16.219Z,24.70
2019-06-20T17:15:48.581Z,25.00
2019-06-20T17:18:21.278Z,25.10
2019-06-20T17:20:53.536Z,25.20
2019-06-20T17:23:25.872Z,25.10
2019-06-20T17:26:01.561Z,25.10
2019-06-20T17:28:33.924Z,25.00
2019-06-20T17:31:06.313Z,24.60
2019-06-20T17:33:38.255Z,24.30
2019-06-20T17:36:18.304Z,24.00
2019-06-20T17:38:43.719Z,24.00
2019-06-20T17:41:15.801Z,23.80
2019-06-20T17:43:47.637Z,23.90
2019-06-20T17:46:19.468Z,23.90
2019-06-20T17:48:52.050Z,23.80
2019-06-20T17:51:23.927Z,23.80
2019-06-20T17:53:55.751Z,23.70
2019-06-20T17:56:28.752Z,23.70
2019-06-20T17:59:00.858Z,23.60
2019-06-20T18:01:35.886Z,23.50
2019-06-20T18:04:13.768Z,23.50
2019-06-20T18:06:39.842Z,23.40
2019-06-20T18:09:11.988Z,23.40
2019-06-20T18:11:43.846Z,23.50
2019-06-20T18:14:15.685Z,23.70
2019-06-20T18:16:47.803Z,23.80
2019-06-20T18:19:19.738Z,24.00
2019-06-20T18:21:51.831Z,23.90
2019-06-20T18:24:24.838Z,23.80
2019-06-20T18:26:56.734Z,23.80
2019-06-20T18:29:28.814Z,23.70
2019-06-20T18:32:00.708Z,23.80
2019-06-20T18:34:32.557Z,23.70
2019-06-20T18:37:04.495Z,23.80
2019-06-20T18:39:36.478Z,23.70
2019-06-20T18:42:08.367Z,23.60
2019-06-20T18:44:40.797Z,23.60
2019-06-20T18:47:12.737Z,23.50
2019-06-20T18:49:44.709Z,23.50
2019-06-20T18:52:16.575Z,23.40
2019-06-20T18:54:48.733Z,23.30
2019-06-20T18:57:20.872Z,23.20
2019-06-20T18:59:52.811Z,23.20
2019-06-20T19:02:28.971Z,23.10
2019-06-20T19:05:00.969Z,23.10
2019-06-20T19:07:33.102Z,23.10
2019-06-20T19:10:05.794Z,23.10
2019-06-20T19:12:37.777Z,23.00
2019-06-20T19:15:11.305Z,23.00
2019-06-20T19:17:43.357Z,23.00
2019-06-20T19:20:17.581Z,23.00
2019-06-20T19:22:49.711Z,23.00
2019-06-20T19:25:22.106Z,23.00
2019-06-20T19:27:54.123Z,23.10
2019-06-20T19:30:45.271Z,23.10
2019-06-20T19:33:17.411Z,23.10
2019-06-20T19:36:00.669Z,22.90
2019-06-20T19:38:32.648Z,22.80
2019-06-20T19:41:04.606Z,22.60
2019-06-20T19:43:38.394Z,22.40
2019-06-20T19:46:10.639Z,22.30
2019-06-20T19:48:50.132Z,22.10
2019-06-20T19:51:22.577Z,22.00
2019-06-20T19:53:54.707Z,22.10
2019-06-20T19:56:26.881Z,22.00
2019-06-20T19:59:00.227Z,21.80
2019-06-20T20:01:32.414Z,21.70
2019-06-20T20:04:06.962Z,21.30
2019-06-20T20:06:39.230Z,20.80
2019-06-20T20:09:11.880Z,20.50
2019-06-20T20:11:43.870Z,20.30
2019-06-20T20:14:15.821Z,20.30
2019-06-20T20:16:47.977Z,20.40
2019-06-20T20:19:20.102Z,20.50
2019-06-20T20:21:52.343Z,20.70
2019-06-20T20:24:27.044Z,20.80
2019-06-20T20:26:59.174Z,20.60
2019-06-20T20:29:32.489Z,20.40
2019-06-20T20:32:04.734Z,20.50
2019-06-20T20:34:37.227Z,20.70
2019-06-20T20:37:09.390Z,20.90
2019-06-20T20:39:41.546Z,20.90
2019-06-20T20:42:17.009Z,21.00
2019-06-20T20:44:47.782Z,21.10
2019-06-20T20:47:20.021Z,21.10
2019-06-20T20:49:52.542Z,21.10
2019-06-20T20:52:24.761Z,21.00
2019-06-20T20:54:56.989Z,21.00
2019-06-20T20:57:29.262Z,21.00
2019-06-20T21:00:01.737Z,20.90
2019-06-20T21:02:35.704Z,20.90
2019-06-20T21:05:08.082Z,20.90
2019-06-20T21:07:40.355Z,20.90
2019-06-20T21:10:14.404Z,20.80
2019-06-20T21:12:52.331Z,20.70
2019-06-20T21:15:21.799Z,20.70
2019-06-20T21:17:55.791Z,20.70
2019-06-20T21:20:33.779Z,20.70
2019-06-20T21:23:06.112Z,20.50
2019-06-20T21:25:38.234Z,20.50
2019-06-20T21:28:11.365Z,20.50
2019-06-20T21:30:43.585Z,20.50
2019-06-20T21:33:15.936Z,20.50
2019-06-20T21:36:07.194Z,20.50
2019-06-20T21:38:28.166Z,20.40
2019-06-20T21:41:01.905Z,20.40
2019-06-20T21:43:34.067Z,20.40
2019-06-20T21:46:07.600Z,20.30
2019-06-20T21:48:39.881Z,20.20
2019-06-20T21:51:12.017Z,20.20
2019-06-20T21:53:47.230Z,20.30
2019-06-20T21:56:19.250Z,20.30
2019-06-20T21:58:52.763Z,20.30
2019-06-20T22:01:26.252Z,20.40
2019-06-20T22:03:59.658Z,20.40
2019-06-20T22:06:31.952Z,20.40
2019-06-20T22:09:08.577Z,20.30
2019-06-20T22:11:42.400Z,20.30
2019-06-20T22:14:15.588Z,20.20
2019-06-20T22:16:52.282Z,20.30
2019-06-20T22:19:25.410Z,20.20
2019-06-20T22:21:57.560Z,20.10
2019-06-20T22:24:29.804Z,19.80
2019-06-20T22:27:03.449Z,19.80
2019-06-20T22:29:35.730Z,20.00
2019-06-20T22:32:07.976Z,20.00
2019-06-20T22:34:40.171Z,19.90
2019-06-20T22:37:13.307Z,19.90
2019-06-20T22:39:48.270Z,20.00
2019-06-20T22:42:20.261Z,19.90
2019-06-20T22:44:52.263Z,19.90
2019-06-20T22:47:24.239Z,20.10
2019-06-20T22:49:56.170Z,20.20
2019-06-20T22:52:28.474Z,20.40
2019-06-20T22:55:02.515Z,20.40
2019-06-20T22:57:34.551Z,20.30
2019-06-20T23:00:07.960Z,20.30
2019-06-20T23:02:40.058Z,20.20
2019-06-20T23:05:12.378Z,20.00
2019-06-20T23:07:44.729Z,19.90
2019-06-20T23:10:16.974Z,20.00
2019-06-20T23:12:49.065Z,19.90
2019-06-20T23:15:21.129Z,19.60
2019-06-20T23:17:53.100Z,19.40
2019-06-20T23:20:25.296Z,19.50
2019-06-20T23:22:57.265Z,19.60
2019-06-20T23:25:29.251Z,19.70
2019-06-20T23:28:01.374Z,19.80
2019-06-20T23:30:33.488Z,19.90
2019-06-20T23:33:05.733Z,19.80
2019-06-20T23:35:37.667Z,19.50
2019-06-20T23:38:09.688Z,19.10
2019-06-20T23:40:41.881Z,19.10
2019-06-20T23:43:13.942Z,19.20
2019-06-20T23:45:45.940Z,19.40
2019-06-20T23:48:18.226Z,19.60
2019-06-20T23:50:50.363Z,19.70
2019-06-20T23:53:25.297Z,19.70
2019-06-20T23:55:59.757Z,19.80
2019-06-20T23:58:32.020Z,19.50
